sensor_id;sensor_type;location;lat;lon;timestamp;pressure;altitude;pressure_sealevel;temperature;humidity
37852;BME280;23691;52.486;4.650;2023-02-13T00:01:12;103844.31;;;8.41;71.32
37852;BME280;23691;52.486;4.650;2023-02-13T00:03:38;103844.41;;;8.40;71.54
37852;BME280;23691;52.486;4.650;2023-02-13T00:06:03;103845.31;;;8.38;71.57
37852;BME280;23691;52.486;4.650;2023-02-13T00:08:29;103834.75;;;8.37;71.64
37852;BME280;23691;52.486;4.650;2023-02-13T00:10:54;103843.59;;;8.37;71.76
37852;BME280;23691;52.486;4.650;2023-02-13T00:13:20;103844.53;;;8.36;71.71
37852;BME280;23691;52.486;4.650;2023-02-13T00:15:54;103840.06;;;8.37;71.93
37852;BME280;23691;52.486;4.650;2023-02-13T00:18:19;103840.28;;;8.32;72.18
37852;BME280;23691;52.486;4.650;2023-02-13T00:20:44;103837.53;;;8.34;72.09
37852;BME280;23691;52.486;4.650;2023-02-13T00:23:10;103825.16;;;8.33;71.87
37852;BME280;23691;52.486;4.650;2023-02-13T00:25:35;103822.53;;;8.31;72.26
37852;BME280;23691;52.486;4.650;2023-02-13T00:28:00;103822.47;;;8.33;71.91
37852;BME280;23691;52.486;4.650;2023-02-13T00:30:26;103825.94;;;8.35;71.94
37852;BME280;23691;52.486;4.650;2023-02-13T00:32:51;103819.75;;;8.34;71.98
37852;BME280;23691;52.486;4.650;2023-02-13T00:35:17;103818.84;;;8.34;71.75
37852;BME280;23691;52.486;4.650;2023-02-13T00:37:42;103818.84;;;8.34;72.09
37852;BME280;23691;52.486;4.650;2023-02-13T00:40:08;103820.59;;;8.35;72.09
37852;BME280;23691;52.486;4.650;2023-02-13T00:42:33;103816.19;;;8.34;72.35
37852;BME280;23691;52.486;4.650;2023-02-13T00:44:59;103822.47;;;8.33;72.22
37852;BME280;23691;52.486;4.650;2023-02-13T00:47:24;103812.66;;;8.33;72.03
37852;BME280;23691;52.486;4.650;2023-02-13T00:49:49;103818.97;;;8.32;72.24
37852;BME280;23691;52.486;4.650;2023-02-13T00:52:15;103820.66;;;8.33;72.28
37852;BME280;23691;52.486;4.650;2023-02-13T00:54:40;103824.13;;;8.35;72.23
37852;BME280;23691;52.486;4.650;2023-02-13T00:57:05;103821.47;;;8.35;72.46
37852;BME280;23691;52.486;4.650;2023-02-13T00:59:31;103818.84;;;8.34;72.20
37852;BME280;23691;52.486;4.650;2023-02-13T01:01:56;103821.69;;;8.31;72.47
37852;BME280;23691;52.486;4.650;2023-02-13T01:04:21;103811.88;;;8.31;72.38
37852;BME280;23691;52.486;4.650;2023-02-13T01:06:47;103815.50;;;8.30;72.50
37852;BME280;23691;52.486;4.650;2023-02-13T01:09:12;103813.69;;;8.31;72.51
37852;BME280;23691;52.486;4.650;2023-02-13T01:11:37;103807.44;;;8.32;72.50
37852;BME280;23691;52.486;4.650;2023-02-13T01:14:03;103813.69;;;8.31;72.46
37852;BME280;23691;52.486;4.650;2023-02-13T01:16:28;103809.16;;;8.33;72.44
37852;BME280;23691;52.486;4.650;2023-02-13T01:18:54;103800.34;;;8.31;72.34
37852;BME280;23691;52.486;4.650;2023-02-13T01:21:20;103806.69;;;8.28;72.33
37852;BME280;23691;52.486;4.650;2023-02-13T01:23:48;103802.38;;;8.26;72.49
37852;BME280;23691;52.486;4.650;2023-02-13T01:26:21;103807.66;;;8.27;72.48
37852;BME280;23691;52.486;4.650;2023-02-13T01:28:47;103807.03;;;8.22;72.52
37852;BME280;23691;52.486;4.650;2023-02-13T01:31:13;103803.56;;;8.20;72.45
37852;BME280;23691;52.486;4.650;2023-02-13T01:33:38;103807.09;;;8.21;72.50
37852;BME280;23691;52.486;4.650;2023-02-13T01:36:06;103805.28;;;8.21;72.45
37852;BME280;23691;52.486;4.650;2023-02-13T01:38:31;103810.63;;;8.21;72.59
37852;BME280;23691;52.486;4.650;2023-02-13T01:40:56;103802.63;;;8.21;72.25
37852;BME280;23691;52.486;4.650;2023-02-13T01:43:22;103806.22;;;8.20;72.45
37852;BME280;23691;52.486;4.650;2023-02-13T01:45:52;103800.81;;;8.22;72.40
37852;BME280;23691;52.486;4.650;2023-02-13T01:48:24;103800.91;;;8.20;72.47
37852;BME280;23691;52.486;4.650;2023-02-13T01:50:58;103805.38;;;8.20;72.36
37852;BME280;23691;52.486;4.650;2023-02-13T01:53:37;103800.97;;;8.18;72.33
37852;BME280;23691;52.486;4.650;2023-02-13T01:56:14;103805.38;;;8.20;72.38
37852;BME280;23691;52.486;4.650;2023-02-13T01:58:44;103798.28;;;8.18;72.45
37852;BME280;23691;52.486;4.650;2023-02-13T02:01:10;103807.31;;;8.16;72.27
37852;BME280;23691;52.486;4.650;2023-02-13T02:03:49;103805.50;;;8.16;72.32
37852;BME280;23691;52.486;4.650;2023-02-13T02:06:34;103804.59;;;8.17;72.17
37852;BME280;23691;52.486;4.650;2023-02-13T02:09:04;103807.38;;;8.14;72.40
37852;BME280;23691;52.486;4.650;2023-02-13T02:11:58;103802.63;;;8.21;72.38
37852;BME280;23691;52.486;4.650;2023-02-13T02:14:25;103804.50;;;8.19;72.43
37852;BME280;23691;52.486;4.650;2023-02-13T02:16:51;103799.16;;;8.19;72.46
37852;BME280;23691;52.486;4.650;2023-02-13T02:19:42;103797.22;;;8.23;72.33
37852;BME280;23691;52.486;4.650;2023-02-13T02:34:34;103795.63;;;8.18;72.64
37852;BME280;23691;52.486;4.650;2023-02-13T02:39:31;103787.78;;;8.15;72.62
37852;BME280;23691;52.486;4.650;2023-02-13T02:44:44;103788.81;;;8.13;72.79
37852;BME280;23691;52.486;4.650;2023-02-13T02:47:26;103787.00;;;8.13;72.96
37852;BME280;23691;52.486;4.650;2023-02-13T02:50:32;103787.84;;;8.14;72.82
37852;BME280;23691;52.486;4.650;2023-02-13T02:56:19;103783.47;;;8.13;72.99
37852;BME280;23691;52.486;4.650;2023-02-13T02:58:54;103788.72;;;8.14;73.08
37852;BME280;23691;52.486;4.650;2023-02-13T03:01:40;103789.66;;;8.13;73.10
37852;BME280;23691;52.486;4.650;2023-02-13T03:04:40;103788.72;;;8.14;73.29
37852;BME280;23691;52.486;4.650;2023-02-13T03:07:26;103779.06;;;8.12;73.15
37852;BME280;23691;52.486;4.650;2023-02-13T03:09:55;103778.22;;;8.11;73.36
37852;BME280;23691;52.486;4.650;2023-02-13T03:12:45;103780.88;;;8.11;73.34
37852;BME280;23691;52.486;4.650;2023-02-13T03:15:30;103771.31;;;8.07;73.51
37852;BME280;23691;52.486;4.650;2023-02-13T03:17:56;103774.75;;;8.09;73.62
37852;BME280;23691;52.486;4.650;2023-02-13T03:20:49;103774.69;;;8.11;73.48
37852;BME280;23691;52.486;4.650;2023-02-13T03:23:59;103771.16;;;8.10;73.65
37852;BME280;23691;52.486;4.650;2023-02-13T03:35:31;103766.91;;;8.06;73.85
37852;BME280;23691;52.486;4.650;2023-02-13T03:38:39;103761.75;;;8.03;73.85
37852;BME280;23691;52.486;4.650;2023-02-13T03:41:37;103766.13;;;8.04;74.12
37852;BME280;23691;52.486;4.650;2023-02-13T03:44:10;103764.25;;;8.06;74.06
37852;BME280;23691;52.486;4.650;2023-02-13T03:46:43;103768.66;;;8.07;74.06
37852;BME280;23691;52.486;4.650;2023-02-13T03:49:18;103769.56;;;8.06;73.99
37852;BME280;23691;52.486;4.650;2023-02-13T03:54:40;103773.41;;;8.01;74.24
37852;BME280;23691;52.486;4.650;2023-02-13T03:57:26;103780.63;;;7.99;74.41
37852;BME280;23691;52.486;4.650;2023-02-13T04:00:13;103771.59;;;8.01;74.13
37852;BME280;23691;52.486;4.650;2023-02-13T04:05:43;103775.34;;;7.97;74.29
37852;BME280;23691;52.486;4.650;2023-02-13T04:08:10;103762.91;;;7.98;74.46
37852;BME280;23691;52.486;4.650;2023-02-13T04:10:41;103766.34;;;8.00;74.51
37852;BME280;23691;52.486;4.650;2023-02-13T04:13:17;103763.63;;;8.01;74.48
37852;BME280;23691;52.486;4.650;2023-02-13T04:15:52;103758.28;;;8.01;74.57
37852;BME280;23691;52.486;4.650;2023-02-13T04:18:26;103763.53;;;8.03;74.63
37852;BME280;23691;52.486;4.650;2023-02-13T04:20:53;103753.97;;;7.99;74.99
37852;BME280;23691;52.486;4.650;2023-02-13T04:23:18;103758.59;;;7.95;74.80
37852;BME280;23691;52.486;4.650;2023-02-13T04:25:46;103756.78;;;7.95;74.99
37852;BME280;23691;52.486;4.650;2023-02-13T04:28:13;103755.84;;;7.96;74.88
37852;BME280;23691;52.486;4.650;2023-02-13T04:30:38;103758.44;;;7.98;74.94
37852;BME280;23691;52.486;4.650;2023-02-13T04:33:03;103763.69;;;8.00;74.82
37852;BME280;23691;52.486;4.650;2023-02-13T04:35:29;103767.22;;;8.00;74.90
37852;BME280;23691;52.486;4.650;2023-02-13T04:37:54;103759.34;;;7.97;74.65
37852;BME280;23691;52.486;4.650;2023-02-13T04:40:20;103760.31;;;7.96;74.99
37852;BME280;23691;52.486;4.650;2023-02-13T04:42:48;103761.00;;;8.00;74.92
37852;BME280;23691;52.486;4.650;2023-02-13T04:45:15;103757.59;;;7.98;75.09
37852;BME280;23691;52.486;4.650;2023-02-13T04:47:40;103757.66;;;7.96;74.98
37852;BME280;23691;52.486;4.650;2023-02-13T04:50:06;103759.47;;;7.95;75.11
37852;BME280;23691;52.486;4.650;2023-02-13T04:52:32;103750.59;;;7.95;75.24
37852;BME280;23691;52.486;4.650;2023-02-13T04:54:57;103750.59;;;7.95;75.13
37852;BME280;23691;52.486;4.650;2023-02-13T04:57:23;103753.16;;;7.96;75.30
37852;BME280;23691;52.486;4.650;2023-02-13T04:59:48;103752.31;;;7.96;75.32
37852;BME280;23691;52.486;4.650;2023-02-13T05:02:14;103746.19;;;7.94;75.19
37852;BME280;23691;52.486;4.650;2023-02-13T05:04:39;103753.41;;;7.92;75.30
37852;BME280;23691;52.486;4.650;2023-02-13T05:07:04;103752.38;;;7.94;75.33
37852;BME280;23691;52.486;4.650;2023-02-13T05:09:30;103749.66;;;7.96;75.20
37852;BME280;23691;52.486;4.650;2023-02-13T05:11:55;103747.03;;;7.94;75.45
37852;BME280;23691;52.486;4.650;2023-02-13T05:14:21;103746.25;;;7.92;75.42
37852;BME280;23691;52.486;4.650;2023-02-13T05:16:46;103755.13;;;7.93;75.42
37852;BME280;23691;52.486;4.650;2023-02-13T05:19:11;103751.59;;;7.92;75.47
37852;BME280;23691;52.486;4.650;2023-02-13T05:21:37;103748.00;;;7.93;75.45
37852;BME280;23691;52.486;4.650;2023-02-13T05:24:21;103747.94;;;7.95;75.67
37852;BME280;23691;52.486;4.650;2023-02-13T05:26:46;103740.00;;;7.93;75.43
37852;BME280;23691;52.486;4.650;2023-02-13T05:29:12;103742.66;;;7.93;75.38
37852;BME280;23691;52.486;4.650;2023-02-13T05:31:46;103750.72;;;7.92;75.57
37852;BME280;23691;52.486;4.650;2023-02-13T05:34:12;103743.84;;;7.88;75.27
37852;BME280;23691;52.486;4.650;2023-02-13T05:36:38;103744.59;;;7.90;75.50
37852;BME280;23691;52.486;4.650;2023-02-13T05:39:04;103747.38;;;7.88;75.81
37852;BME280;23691;52.486;4.650;2023-02-13T05:41:29;103749.94;;;7.90;75.82
37852;BME280;23691;52.486;4.650;2023-02-13T05:43:55;103752.47;;;7.93;75.75
37852;BME280;23691;52.486;4.650;2023-02-13T05:46:20;103739.16;;;7.93;75.71
37852;BME280;23691;52.486;4.650;2023-02-13T05:48:45;103744.53;;;7.91;76.10
37852;BME280;23691;52.486;4.650;2023-02-13T05:51:14;103755.13;;;7.93;75.74
37852;BME280;23691;52.486;4.650;2023-02-13T05:53:39;103750.59;;;7.95;75.69
37852;BME280;23691;52.486;4.650;2023-02-13T05:56:05;103746.19;;;7.94;75.75
37852;BME280;23691;52.486;4.650;2023-02-13T05:58:31;103750.59;;;7.95;75.77
37852;BME280;23691;52.486;4.650;2023-02-13T06:00:58;103744.38;;;7.94;75.85
37852;BME280;23691;52.486;4.650;2023-02-13T06:03:25;103744.31;;;7.96;75.77
37852;BME280;23691;52.486;4.650;2023-02-13T06:05:51;103751.34;;;7.97;75.79
37852;BME280;23691;52.486;4.650;2023-02-13T06:08:17;103744.31;;;7.96;75.84
37852;BME280;23691;52.486;4.650;2023-02-13T06:10:45;103745.16;;;7.96;75.96
37852;BME280;23691;52.486;4.650;2023-02-13T06:13:10;103746.97;;;7.96;75.73
37852;BME280;23691;52.486;4.650;2023-02-13T06:15:35;103743.47;;;7.95;75.77
37852;BME280;23691;52.486;4.650;2023-02-13T06:18:01;103740.84;;;7.94;76.00
37852;BME280;23691;52.486;4.650;2023-02-13T06:20:26;103746.97;;;7.96;75.85
37852;BME280;23691;52.486;4.650;2023-02-13T06:22:52;103739.84;;;7.96;75.94
37852;BME280;23691;52.486;4.650;2023-02-13T06:25:18;103744.38;;;7.94;75.82
37852;BME280;23691;52.486;4.650;2023-02-13T06:27:43;103740.69;;;7.97;76.16
37852;BME280;23691;52.486;4.650;2023-02-13T06:30:10;103742.50;;;7.96;75.86
37852;BME280;23691;52.486;4.650;2023-02-13T06:32:35;103737.16;;;7.96;75.84
37852;BME280;23691;52.486;4.650;2023-02-13T06:35:00;103746.97;;;7.96;75.79
37852;BME280;23691;52.486;4.650;2023-02-13T06:37:26;103738.13;;;7.95;76.18
37852;BME280;23691;52.486;4.650;2023-02-13T06:39:51;103736.31;;;7.96;75.99
37852;BME280;23691;52.486;4.650;2023-02-13T06:42:16;103736.38;;;7.94;76.13
37852;BME280;23691;52.486;4.650;2023-02-13T06:44:43;103742.59;;;7.95;75.98
37852;BME280;23691;52.486;4.650;2023-02-13T06:47:08;103745.16;;;7.96;75.97
37852;BME280;23691;52.486;4.650;2023-02-13T06:49:34;103751.28;;;7.99;75.73
37852;BME280;23691;52.486;4.650;2023-02-13T06:51:59;103741.50;;;7.99;75.84
37852;BME280;23691;52.486;4.650;2023-02-13T06:54:24;103751.28;;;7.99;75.94
37852;BME280;23691;52.486;4.650;2023-02-13T06:56:50;103743.22;;;8.00;75.96
37852;BME280;23691;52.486;4.650;2023-02-13T06:59:15;103746.81;;;7.99;75.88
37852;BME280;23691;52.486;4.650;2023-02-13T07:01:40;103748.63;;;7.99;75.85
37852;BME280;23691;52.486;4.650;2023-02-13T07:04:06;103751.28;;;7.99;76.09
37852;BME280;23691;52.486;4.650;2023-02-13T07:06:31;103755.69;;;8.00;76.05
37852;BME280;23691;52.486;4.650;2023-02-13T07:08:56;103762.03;;;7.97;76.28
37852;BME280;23691;52.486;4.650;2023-02-13T07:11:24;103759.34;;;7.97;76.14
37852;BME280;23691;52.486;4.650;2023-02-13T07:13:49;103756.69;;;7.97;76.12
37852;BME280;23691;52.486;4.650;2023-02-13T07:16:15;103761.97;;;7.99;76.04
37852;BME280;23691;52.486;4.650;2023-02-13T07:18:41;103771.78;;;7.98;75.95
37852;BME280;23691;52.486;4.650;2023-02-13T07:21:06;103770.03;;;7.97;76.16
37852;BME280;23691;52.486;4.650;2023-02-13T07:23:32;103773.47;;;7.99;76.02
37852;BME280;23691;52.486;4.650;2023-02-13T07:25:58;103772.56;;;8.00;76.16
37852;BME280;23691;52.486;4.650;2023-02-13T07:28:24;103777.91;;;8.00;76.13
37852;BME280;23691;52.486;4.650;2023-02-13T07:30:49;103775.13;;;8.02;76.33
37852;BME280;23691;52.486;4.650;2023-02-13T07:33:15;103775.06;;;8.03;76.12
37852;BME280;23691;52.486;4.650;2023-02-13T07:35:45;103773.19;;;8.05;76.22
37852;BME280;23691;52.486;4.650;2023-02-13T07:38:11;103769.56;;;8.06;76.23
37852;BME280;23691;52.486;4.650;2023-02-13T07:40:36;103778.31;;;8.10;76.17
37852;BME280;23691;52.486;4.650;2023-02-13T07:43:01;103776.41;;;8.12;76.10
37852;BME280;23691;52.486;4.650;2023-02-13T07:45:27;103775.53;;;8.11;76.18
37852;BME280;23691;52.486;4.650;2023-02-13T07:47:54;103773.81;;;8.10;76.22
37852;BME280;23691;52.486;4.650;2023-02-13T07:50:20;103776.34;;;8.13;76.39
37852;BME280;23691;52.486;4.650;2023-02-13T07:53:00;103777.97;;;8.16;76.22
37852;BME280;23691;52.486;4.650;2023-02-13T07:55:29;103786.84;;;8.16;76.30
37852;BME280;23691;52.486;4.650;2023-02-13T07:57:55;103780.66;;;8.16;76.48
37852;BME280;23691;52.486;4.650;2023-02-13T08:00:21;103784.97;;;8.18;76.20
37852;BME280;23691;52.486;4.650;2023-02-13T08:02:47;103791.09;;;8.21;76.17
37852;BME280;23691;52.486;4.650;2023-02-13T08:05:12;103790.22;;;8.20;76.33
37852;BME280;23691;52.486;4.650;2023-02-13T08:07:38;103786.53;;;8.23;76.34
37852;BME280;23691;52.486;4.650;2023-02-13T08:10:06;103786.38;;;8.26;76.17
37852;BME280;23691;52.486;4.650;2023-02-13T08:12:51;103781.03;;;8.26;76.32
37852;BME280;23691;52.486;4.650;2023-02-13T08:15:17;103790.69;;;8.28;76.03
37852;BME280;23691;52.486;4.650;2023-02-13T08:17:42;103788.75;;;8.32;76.22
37852;BME280;23691;52.486;4.650;2023-02-13T08:20:09;103794.84;;;8.34;75.89
37852;BME280;23691;52.486;4.650;2023-02-13T08:22:38;103788.59;;;8.35;76.25
37852;BME280;23691;52.486;4.650;2023-02-13T08:25:04;103789.25;;;8.40;76.20
37852;BME280;23691;52.486;4.650;2023-02-13T08:27:30;103788.22;;;8.43;76.16
37852;BME280;23691;52.486;4.650;2023-02-13T08:29:56;103790.66;;;8.47;76.11
37852;BME280;23691;52.486;4.650;2023-02-13T08:32:22;103791.34;;;8.51;76.26
37852;BME280;23691;52.486;4.650;2023-02-13T08:34:48;103789.47;;;8.53;75.85
37852;BME280;23691;52.486;4.650;2023-02-13T08:37:13;103786.66;;;8.56;75.72
37852;BME280;23691;52.486;4.650;2023-02-13T08:39:39;103783.06;;;8.57;75.98
37852;BME280;23691;52.486;4.650;2023-02-13T08:42:04;103779.34;;;8.59;75.92
37852;BME280;23691;52.486;4.650;2023-02-13T08:44:30;103773.84;;;8.63;76.00
37852;BME280;23691;52.486;4.650;2023-02-13T08:46:55;103780.84;;;8.65;76.17
37852;BME280;23691;52.486;4.650;2023-02-13T08:49:21;103781.53;;;8.69;75.81
37852;BME280;23691;52.486;4.650;2023-02-13T08:51:48;103788.53;;;8.71;75.62
37852;BME280;23691;52.486;4.650;2023-02-13T08:54:13;103787.66;;;8.71;75.62
37852;BME280;23691;52.486;4.650;2023-02-13T08:56:39;103783.09;;;8.73;75.71
37852;BME280;23691;52.486;4.650;2023-02-13T08:59:04;103779.50;;;8.74;75.88
37852;BME280;23691;52.486;4.650;2023-02-13T09:01:29;103781.16;;;8.76;75.68
37852;BME280;23691;52.486;4.650;2023-02-13T09:03:55;103783.66;;;8.79;75.78
37852;BME280;23691;52.486;4.650;2023-02-13T09:06:20;103785.22;;;8.84;76.05
37852;BME280;23691;52.486;4.650;2023-02-13T09:08:46;103791.19;;;8.89;75.66
37852;BME280;23691;52.486;4.650;2023-02-13T09:11:11;103785.66;;;8.92;75.62
37852;BME280;23691;52.486;4.650;2023-02-13T09:13:37;103782.81;;;8.95;75.50
37852;BME280;23691;52.486;4.650;2023-02-13T09:16:05;103783.63;;;8.97;75.55
37852;BME280;23691;52.486;4.650;2023-02-13T09:18:31;103784.28;;;9.00;75.60
37852;BME280;23691;52.486;4.650;2023-02-13T09:21:00;103781.38;;;9.05;75.43
37852;BME280;23691;52.486;4.650;2023-02-13T09:23:30;103785.69;;;9.08;75.36
37852;BME280;23691;52.486;4.650;2023-02-13T09:25:58;103785.56;;;9.11;75.27
37852;BME280;23691;52.486;4.650;2023-02-13T09:28:24;103771.16;;;9.13;75.18
37852;BME280;23691;52.486;4.650;2023-02-13T09:30:49;103780.72;;;9.17;75.13
37852;BME280;23691;52.486;4.650;2023-02-13T09:33:15;103776.88;;;9.23;75.16
37852;BME280;23691;52.486;4.650;2023-02-13T09:35:40;103779.25;;;9.28;75.05
37852;BME280;23691;52.486;4.650;2023-02-13T09:38:07;103780.81;;;9.32;74.77
37852;BME280;23691;52.486;4.650;2023-02-13T09:40:49;103778.59;;;9.40;74.90
37852;BME280;23691;52.486;4.650;2023-02-13T09:43:37;103778.25;;;9.46;74.77
37852;BME280;23691;52.486;4.650;2023-02-13T09:48:39;103779.53;;;9.55;74.80
37852;BME280;23691;52.486;4.650;2023-02-13T09:51:08;103773.06;;;9.59;74.80
37852;BME280;23691;52.486;4.650;2023-02-13T09:53:37;103771.97;;;9.63;74.72
37852;BME280;23691;52.486;4.650;2023-02-13T09:56:21;103770.56;;;9.72;74.35
37852;BME280;23691;52.486;4.650;2023-02-13T10:01:54;103762.03;;;9.81;74.24
37852;BME280;23691;52.486;4.650;2023-02-13T10:04:51;103764.38;;;9.87;74.30
37852;BME280;23691;52.486;4.650;2023-02-13T10:07:47;103757.00;;;9.91;74.17
37852;BME280;23691;52.486;4.650;2023-02-13T10:13:22;103770.19;;;10.09;73.86
37852;BME280;23691;52.486;4.650;2023-02-13T10:18:17;103762.28;;;10.22;73.77
37852;BME280;23691;52.486;4.650;2023-02-13T10:20:46;103764.53;;;10.30;73.58
37852;BME280;23691;52.486;4.650;2023-02-13T10:25:57;103752.31;;;10.40;73.32
37852;BME280;23691;52.486;4.650;2023-02-13T10:28:48;103766.50;;;10.57;73.02
37852;BME280;23691;52.486;4.650;2023-02-13T10:31:38;103759.91;;;10.62;73.07
37852;BME280;23691;52.486;4.650;2023-02-13T10:34:05;103757.81;;;10.67;72.81
37852;BME280;23691;52.486;4.650;2023-02-13T10:36:41;103766.06;;;10.79;72.60
37852;BME280;23691;52.486;4.650;2023-02-13T10:39:24;103757.34;;;10.89;72.33
37852;BME280;23691;52.486;4.650;2023-02-13T10:41:53;103772.38;;;10.92;72.28
37852;BME280;23691;52.486;4.650;2023-02-13T10:55:01;103757.41;;;11.31;71.27
37852;BME280;23691;52.486;4.650;2023-02-13T10:57:37;103754.66;;;11.32;71.05
37852;BME280;23691;52.486;4.650;2023-02-13T11:02:33;103749.66;;;11.26;70.92
37852;BME280;23691;52.486;4.650;2023-02-13T11:05:37;103745.63;;;11.33;70.85
37852;BME280;23691;52.486;4.650;2023-02-13T11:08:25;103739.22;;;11.36;70.78
37852;BME280;23691;52.486;4.650;2023-02-13T11:10:52;103738.66;;;11.31;70.59
37852;BME280;23691;52.486;4.650;2023-02-13T11:13:20;103734.25;;;11.30;70.55
37852;BME280;23691;52.486;4.650;2023-02-13T11:16:06;103733.22;;;11.32;70.20
37852;BME280;23691;52.486;4.650;2023-02-13T11:18:42;103729.25;;;11.38;69.91
37852;BME280;23691;52.486;4.650;2023-02-13T11:21:22;103719.00;;;11.45;69.87
37852;BME280;23691;52.486;4.650;2023-02-13T11:23:56;103726.00;;;11.47;69.81
37852;BME280;23691;52.486;4.650;2023-02-13T11:26:32;103720.50;;;11.49;69.71
37852;BME280;23691;52.486;4.650;2023-02-13T11:29:00;103713.13;;;11.52;69.63
37852;BME280;23691;52.486;4.650;2023-02-13T11:31:35;103715.53;;;11.57;69.42
37852;BME280;23691;52.486;4.650;2023-02-13T11:34:36;103709.09;;;11.59;69.23
37852;BME280;23691;52.486;4.650;2023-02-13T11:39:36;103703.97;;;11.69;69.06
37852;BME280;23691;52.486;4.650;2023-02-13T11:42:01;103708.28;;;11.72;68.99
37852;BME280;23691;52.486;4.650;2023-02-13T11:44:27;103705.09;;;11.79;68.57
37852;BME280;23691;52.486;4.650;2023-02-13T11:46:56;103706.22;;;11.90;68.68
37852;BME280;23691;52.486;4.650;2023-02-13T11:49:23;103705.16;;;12.05;68.10
37852;BME280;23691;52.486;4.650;2023-02-13T11:51:55;103707.44;;;12.11;68.06
37852;BME280;23691;52.486;4.650;2023-02-13T11:56:57;103697.78;;;12.21;67.93
37852;BME280;23691;52.486;4.650;2023-02-13T11:59:24;103693.81;;;12.14;67.89
37852;BME280;23691;52.486;4.650;2023-02-13T12:02:20;103694.13;;;12.10;67.81
37852;BME280;23691;52.486;4.650;2023-02-13T12:04:48;103695.63;;;12.14;67.98
37852;BME280;23691;52.486;4.650;2023-02-13T12:07:22;103696.06;;;12.20;67.63
37852;BME280;23691;52.486;4.650;2023-02-13T12:09:53;103690.69;;;12.20;67.64
37852;BME280;23691;52.486;4.650;2023-02-13T12:12:26;103683.72;;;12.18;67.88
37852;BME280;23691;52.486;4.650;2023-02-13T12:14:54;103677.63;;;12.16;68.00
37852;BME280;23691;52.486;4.650;2023-02-13T12:17:26;103670.28;;;12.18;67.83
37852;BME280;23691;52.486;4.650;2023-02-13T12:19:54;103676.84;;;12.27;67.78
37852;BME280;23691;52.486;4.650;2023-02-13T12:28:15;103666.09;;;12.52;67.32
37852;BME280;23691;52.486;4.650;2023-02-13T12:31:05;103670.53;;;12.53;67.38
37852;BME280;23691;52.486;4.650;2023-02-13T12:33:45;103655.50;;;12.51;67.34
37852;BME280;23691;52.486;4.650;2023-02-13T12:39:24;103661.06;;;12.60;67.00
37852;BME280;23691;52.486;4.650;2023-02-13T12:47:23;103656.75;;;12.45;67.12
37852;BME280;23691;52.486;4.650;2023-02-13T12:50:35;103642.38;;;12.46;66.98
37852;BME280;23691;52.486;4.650;2023-02-13T12:58:48;103643.63;;;12.79;66.85
37852;BME280;23691;52.486;4.650;2023-02-13T13:07:38;103635.81;;;12.63;66.95
37852;BME280;23691;52.486;4.650;2023-02-13T13:12:33;103632.38;;;12.61;67.13
37852;BME280;23691;52.486;4.650;2023-02-13T13:17:56;103628.31;;;12.55;67.16
37852;BME280;23691;52.486;4.650;2023-02-13T13:23:12;103621.53;;;12.50;67.25
37852;BME280;23691;52.486;4.650;2023-02-13T13:28:23;103615.84;;;12.41;67.25
37852;BME280;23691;52.486;4.650;2023-02-13T13:30:51;103618.75;;;12.38;67.19
37852;BME280;23691;52.486;4.650;2023-02-13T13:33:22;103614.47;;;12.36;67.30
37852;BME280;23691;52.486;4.650;2023-02-13T13:38:32;103613.06;;;12.30;67.10
37852;BME280;23691;52.486;4.650;2023-02-13T13:41:18;103607.06;;;12.27;67.06
37852;BME280;23691;52.486;4.650;2023-02-13T13:46:43;103591.19;;;12.23;67.27
37852;BME280;23691;52.486;4.650;2023-02-13T13:49:45;103590.44;;;12.21;67.40
37852;BME280;23691;52.486;4.650;2023-02-13T13:54:48;103584.41;;;12.18;67.65
37852;BME280;23691;52.486;4.650;2023-02-13T14:03:11;103570.69;;;12.10;67.54
37852;BME280;23691;52.486;4.650;2023-02-13T14:05:57;103567.47;;;12.05;67.52
37852;BME280;23691;52.486;4.650;2023-02-13T14:11:05;103572.69;;;11.93;67.66
37852;BME280;23691;52.486;4.650;2023-02-13T14:13:38;103572.06;;;11.90;67.73
37852;BME280;23691;52.486;4.650;2023-02-13T14:16:11;103574.00;;;11.88;67.77
37852;BME280;23691;52.486;4.650;2023-02-13T14:18:37;103579.66;;;11.83;67.87
37852;BME280;23691;52.486;4.650;2023-02-13T14:21:09;103578.69;;;11.84;67.84
37852;BME280;23691;52.486;4.650;2023-02-13T14:23:47;103570.75;;;11.82;67.74
37852;BME280;23691;52.486;4.650;2023-02-13T14:28:56;103583.63;;;11.77;67.96
37852;BME280;23691;52.486;4.650;2023-02-13T14:31:34;103579.97;;;11.78;67.78
37852;BME280;23691;52.486;4.650;2023-02-13T14:34:06;103581.03;;;11.76;67.97
37852;BME280;23691;52.486;4.650;2023-02-13T14:36:37;103582.22;;;11.72;68.29
37852;BME280;23691;52.486;4.650;2023-02-13T14:39:28;103583.09;;;11.72;68.20
37852;BME280;23691;52.486;4.650;2023-02-13T14:41:59;103579.63;;;11.70;68.29
37852;BME280;23691;52.486;4.650;2023-02-13T14:46:51;103569.13;;;11.67;68.48
37852;BME280;23691;52.486;4.650;2023-02-13T14:49:29;103570.06;;;11.66;68.29
37852;BME280;23691;52.486;4.650;2023-02-13T14:51:57;103560.53;;;11.62;68.48
37852;BME280;23691;52.486;4.650;2023-02-13T14:54:46;103560.63;;;11.60;68.54
37852;BME280;23691;52.486;4.650;2023-02-13T14:57:22;103557.97;;;11.60;68.51
37852;BME280;23691;52.486;4.650;2023-02-13T15:00:16;103562.56;;;11.58;68.47
37852;BME280;23691;52.486;4.650;2023-02-13T15:02:44;103556.25;;;11.59;68.47
37852;BME280;23691;52.486;4.650;2023-02-13T15:05:14;103549.38;;;11.55;68.37
37852;BME280;23691;52.486;4.650;2023-02-13T15:07:48;103551.28;;;11.53;68.78
37852;BME280;23691;52.486;4.650;2023-02-13T15:10:30;103552.16;;;11.54;68.86
37852;BME280;23691;52.486;4.650;2023-02-13T15:13:01;103544.22;;;11.52;68.71
37852;BME280;23691;52.486;4.650;2023-02-13T15:15:30;103552.44;;;11.49;68.80
37852;BME280;23691;52.486;4.650;2023-02-13T15:18:17;103561.38;;;11.50;69.03
37852;BME280;23691;52.486;4.650;2023-02-13T15:20:44;103555.13;;;11.49;68.71
37852;BME280;23691;52.486;4.650;2023-02-13T15:23:24;103556.97;;;11.49;68.85